Главная страница
METAR-TAF:

METAR-TAF

Аэропорты :

Олесунн, Норвегия

широта: 62-34N, долгота: 006-07E, высота над уровнем моря: 2 м

Текущие метеонаблюдения

Эта сводка был подготовлена 36 минут назад, в 19:50 UTC
Штиль
Температура 6°C
Влажность 75%
Давление 1036 hPa
Видимость 10 км и более
Нет облачности ниже 1500 м, и нет кучево-дождевой облачности

METAR: ENAL 181950Z 00000KT CAVOK 06/02 Q1036

Время: 22:26 (20:26 UTC)

Прогноз

Эта сводка был подготовлена 3 часа и 26 минут назад, в 17:00 UTC
Прогноз действительный с 18-го 18 UTC до 18-го 21 UTC
Ветер 5 Узел переменных направлений
Видимость 10 км и более
Нет облачности ниже 1500 м, и нет кучево-дождевой облачности

TAF: ENAL 181700Z 1818/1821 VRB05KT CAVOK

Метеонаблюдения и прогнозы для более 4000 аэропортов (сводки METAR и TAF).

Имеющиеся станции представлены на карте желтыми и красными точками.

Чтобы увидеть название станции, наведите на нее мышь.

Затем щелкните, чтобы увидеть метеонаблюдения и метеопрогнозы.

Управление картой: чтобы увеличить масштаб, щелкните зеленые кнопки с черным крестиком; чтобы уменьшить масштаб, щелкните зеленую кнопку с тире; для просмотра соседних карт щелкайте зеленые стрелки.


METAR-TAF: